<?xml version="1.0" encoding="UTF-8" standalone="no" ?>
<gpx xmlns="http://www.topografix.com/GPX/1/1" xmlns:xsi="http://www.w3.org/2001/XMLSchema-instance" xsi:schemaLocation="http://www.topografix.com/GPX/1/1 http://www.topografix.com/GPX/1/1/gpx.xsd" version="1.1" creator="VisuGPX - https://www.visugpx.com">
  <metadata>
    <name>ARQUES LA SEYNE SUR MER 1497 KM</name>
    <desc><![CDATA[Rando de Arques dans le Pas de Calais jusque La Seyne sur Mer dans le Var, 1497 km]]></desc>
  </metadata>
  <trk>
    <name><![CDATA[51 - ST MARTIN D ARDECHE ORSAN 27.8 KM]]></name>
    <extensions>
      <line xmlns="http://www.topografix.com/GPX/gpx_style/0/2">
        <color>00FF00</color>
        <width>4</width>
      </line>
    </extensions>
    <trkseg>
      <trkpt lat="44.30096" lon="4.56759">
        <ele>55</ele>
        <time>2021-12-14T11:28:35+01:00</time>
      </trkpt>
      <trkpt lat="44.29899" lon="4.56647">
        <ele>56</ele>
        <time>2021-12-14T11:28:40+01:00</time>
      </trkpt>
      <trkpt lat="44.29877" lon="4.56661">
        <ele>55</ele>
        <time>2021-12-14T11:28:45+01:00</time>
      </trkpt>
      <trkpt lat="44.29817" lon="4.56614">
        <ele>54</ele>
        <time>2021-12-14T11:28:50+01:00</time>
      </trkpt>
      <trkpt lat="44.29721" lon="4.56636">
        <ele>53</ele>
        <time>2021-12-14T11:28:55+01:00</time>
      </trkpt>
      <trkpt lat="44.29698" lon="4.5665">
        <ele>52</ele>
        <time>2021-12-14T11:29:00+01:00</time>
      </trkpt>
      <trkpt lat="44.29622" lon="4.56655">
        <ele>52</ele>
        <time>2021-12-14T11:29:05+01:00</time>
      </trkpt>
      <trkpt lat="44.2953" lon="4.56662">
        <ele>58</ele>
        <time>2021-12-14T11:29:10+01:00</time>
      </trkpt>
      <trkpt lat="44.29494" lon="4.56685">
        <ele>62</ele>
        <time>2021-12-14T11:29:15+01:00</time>
      </trkpt>
      <trkpt lat="44.29347" lon="4.56615">
        <ele>72</ele>
        <time>2021-12-14T11:29:20+01:00</time>
      </trkpt>
      <trkpt lat="44.29261" lon="4.5664">
        <ele>81</ele>
        <time>2021-12-14T11:29:25+01:00</time>
      </trkpt>
      <trkpt lat="44.2918" lon="4.56652">
        <ele>91</ele>
        <time>2021-12-14T11:29:30+01:00</time>
      </trkpt>
      <trkpt lat="44.29108" lon="4.56652">
        <ele>93</ele>
        <time>2021-12-14T11:29:35+01:00</time>
      </trkpt>
      <trkpt lat="44.29023" lon="4.56603">
        <ele>98</ele>
        <time>2021-12-14T11:29:40+01:00</time>
      </trkpt>
      <trkpt lat="44.28917" lon="4.56577">
        <ele>102</ele>
        <time>2021-12-14T11:29:45+01:00</time>
      </trkpt>
      <trkpt lat="44.288" lon="4.56521">
        <ele>108</ele>
        <time>2021-12-14T11:29:50+01:00</time>
      </trkpt>
      <trkpt lat="44.28786" lon="4.56543">
        <ele>107</ele>
        <time>2021-12-14T11:29:55+01:00</time>
      </trkpt>
      <trkpt lat="44.28759" lon="4.56528">
        <ele>109</ele>
        <time>2021-12-14T11:30:00+01:00</time>
      </trkpt>
      <trkpt lat="44.28746" lon="4.56557">
        <ele>107</ele>
        <time>2021-12-14T11:30:05+01:00</time>
      </trkpt>
      <trkpt lat="44.28711" lon="4.56543">
        <ele>111</ele>
        <time>2021-12-14T11:30:10+01:00</time>
      </trkpt>
      <trkpt lat="44.28672" lon="4.56579">
        <ele>110</ele>
        <time>2021-12-14T11:30:15+01:00</time>
      </trkpt>
      <trkpt lat="44.2846" lon="4.56839">
        <ele>85</ele>
        <time>2021-12-14T11:30:20+01:00</time>
      </trkpt>
      <trkpt lat="44.28369" lon="4.56865">
        <ele>81</ele>
        <time>2021-12-14T11:30:25+01:00</time>
      </trkpt>
      <trkpt lat="44.2823" lon="4.5691">
        <ele>78</ele>
        <time>2021-12-14T11:30:30+01:00</time>
      </trkpt>
      <trkpt lat="44.28203" lon="4.57158">
        <ele>71</ele>
        <time>2021-12-14T11:30:35+01:00</time>
      </trkpt>
      <trkpt lat="44.28081" lon="4.57166">
        <ele>67</ele>
        <time>2021-12-14T11:30:40+01:00</time>
      </trkpt>
      <trkpt lat="44.28026" lon="4.57332">
        <ele>65</ele>
        <time>2021-12-14T11:30:45+01:00</time>
      </trkpt>
      <trkpt lat="44.27921" lon="4.57294">
        <ele>74</ele>
        <time>2021-12-14T11:30:50+01:00</time>
      </trkpt>
      <trkpt lat="44.27831" lon="4.57293">
        <ele>77</ele>
        <time>2021-12-14T11:30:55+01:00</time>
      </trkpt>
      <trkpt lat="44.27699" lon="4.57241">
        <ele>86</ele>
        <time>2021-12-14T11:31:00+01:00</time>
      </trkpt>
      <trkpt lat="44.27583" lon="4.5719">
        <ele>97</ele>
        <time>2021-12-14T11:31:05+01:00</time>
      </trkpt>
      <trkpt lat="44.27483" lon="4.57186">
        <ele>110</ele>
        <time>2021-12-14T11:31:10+01:00</time>
      </trkpt>
      <trkpt lat="44.27367" lon="4.56948">
        <ele>136</ele>
        <time>2021-12-14T11:31:15+01:00</time>
      </trkpt>
      <trkpt lat="44.27337" lon="4.56836">
        <ele>148</ele>
        <time>2021-12-14T11:31:20+01:00</time>
      </trkpt>
      <trkpt lat="44.27329" lon="4.56679">
        <ele>154</ele>
        <time>2021-12-14T11:31:25+01:00</time>
      </trkpt>
      <trkpt lat="44.27209" lon="4.5655">
        <ele>167</ele>
        <time>2021-12-14T11:31:30+01:00</time>
      </trkpt>
      <trkpt lat="44.27145" lon="4.5649">
        <ele>173</ele>
        <time>2021-12-14T11:31:35+01:00</time>
      </trkpt>
      <trkpt lat="44.27051" lon="4.56356">
        <ele>181</ele>
        <time>2021-12-14T11:31:40+01:00</time>
      </trkpt>
      <trkpt lat="44.26969" lon="4.56215">
        <ele>182</ele>
        <time>2021-12-14T11:31:45+01:00</time>
      </trkpt>
      <trkpt lat="44.26916" lon="4.56174">
        <ele>181</ele>
        <time>2021-12-14T11:31:50+01:00</time>
      </trkpt>
      <trkpt lat="44.26811" lon="4.56122">
        <ele>181</ele>
        <time>2021-12-14T11:31:55+01:00</time>
      </trkpt>
      <trkpt lat="44.26714" lon="4.56096">
        <ele>188</ele>
        <time>2021-12-14T11:32:00+01:00</time>
      </trkpt>
      <trkpt lat="44.26592" lon="4.56112">
        <ele>194</ele>
        <time>2021-12-14T11:32:05+01:00</time>
      </trkpt>
      <trkpt lat="44.2644" lon="4.5609">
        <ele>198</ele>
        <time>2021-12-14T11:32:10+01:00</time>
      </trkpt>
      <trkpt lat="44.26368" lon="4.56052">
        <ele>199</ele>
        <time>2021-12-14T11:32:15+01:00</time>
      </trkpt>
      <trkpt lat="44.2628" lon="4.55913">
        <ele>206</ele>
        <time>2021-12-14T11:32:20+01:00</time>
      </trkpt>
      <trkpt lat="44.26235" lon="4.55904">
        <ele>209</ele>
        <time>2021-12-14T11:32:25+01:00</time>
      </trkpt>
      <trkpt lat="44.26145" lon="4.55794">
        <ele>215</ele>
        <time>2021-12-14T11:32:30+01:00</time>
      </trkpt>
      <trkpt lat="44.26084" lon="4.55765">
        <ele>214</ele>
        <time>2021-12-14T11:32:35+01:00</time>
      </trkpt>
      <trkpt lat="44.25966" lon="4.55767">
        <ele>215</ele>
        <time>2021-12-14T11:32:40+01:00</time>
      </trkpt>
      <trkpt lat="44.25832" lon="4.55698">
        <ele>222</ele>
        <time>2021-12-14T11:32:45+01:00</time>
      </trkpt>
      <trkpt lat="44.25758" lon="4.55652">
        <ele>225</ele>
        <time>2021-12-14T11:32:50+01:00</time>
      </trkpt>
      <trkpt lat="44.25751" lon="4.55587">
        <ele>229</ele>
        <time>2021-12-14T11:32:55+01:00</time>
      </trkpt>
      <trkpt lat="44.25722" lon="4.55545">
        <ele>231</ele>
        <time>2021-12-14T11:33:00+01:00</time>
      </trkpt>
      <trkpt lat="44.25659" lon="4.55545">
        <ele>238</ele>
        <time>2021-12-14T11:33:05+01:00</time>
      </trkpt>
      <trkpt lat="44.25618" lon="4.55483">
        <ele>245</ele>
        <time>2021-12-14T11:33:10+01:00</time>
      </trkpt>
      <trkpt lat="44.25546" lon="4.55435">
        <ele>251</ele>
        <time>2021-12-14T11:33:15+01:00</time>
      </trkpt>
      <trkpt lat="44.25498" lon="4.55414">
        <ele>254</ele>
        <time>2021-12-14T11:33:20+01:00</time>
      </trkpt>
      <trkpt lat="44.25451" lon="4.55374">
        <ele>257</ele>
        <time>2021-12-14T11:33:25+01:00</time>
      </trkpt>
      <trkpt lat="44.25379" lon="4.55339">
        <ele>261</ele>
        <time>2021-12-14T11:33:30+01:00</time>
      </trkpt>
      <trkpt lat="44.25247" lon="4.55292">
        <ele>264</ele>
        <time>2021-12-14T11:33:35+01:00</time>
      </trkpt>
      <trkpt lat="44.25159" lon="4.55295">
        <ele>264</ele>
        <time>2021-12-14T11:33:40+01:00</time>
      </trkpt>
      <trkpt lat="44.25082" lon="4.55283">
        <ele>268</ele>
        <time>2021-12-14T11:33:45+01:00</time>
      </trkpt>
      <trkpt lat="44.2503" lon="4.55269">
        <ele>273</ele>
        <time>2021-12-14T11:33:50+01:00</time>
      </trkpt>
      <trkpt lat="44.24974" lon="4.55272">
        <ele>278</ele>
        <time>2021-12-14T11:33:55+01:00</time>
      </trkpt>
      <trkpt lat="44.24853" lon="4.55216">
        <ele>284</ele>
        <time>2021-12-14T11:34:00+01:00</time>
      </trkpt>
      <trkpt lat="44.24801" lon="4.55136">
        <ele>282</ele>
        <time>2021-12-14T11:34:05+01:00</time>
      </trkpt>
      <trkpt lat="44.24728" lon="4.55046">
        <ele>281</ele>
        <time>2021-12-14T11:34:10+01:00</time>
      </trkpt>
      <trkpt lat="44.24679" lon="4.55039">
        <ele>281</ele>
        <time>2021-12-14T11:34:15+01:00</time>
      </trkpt>
      <trkpt lat="44.24648" lon="4.55072">
        <ele>277</ele>
        <time>2021-12-14T11:34:20+01:00</time>
      </trkpt>
      <trkpt lat="44.24574" lon="4.55065">
        <ele>260</ele>
        <time>2021-12-14T11:34:25+01:00</time>
      </trkpt>
      <trkpt lat="44.24567" lon="4.5497">
        <ele>271</ele>
        <time>2021-12-14T11:34:30+01:00</time>
      </trkpt>
      <trkpt lat="44.24521" lon="4.54955">
        <ele>265</ele>
        <time>2021-12-14T11:34:35+01:00</time>
      </trkpt>
      <trkpt lat="44.24466" lon="4.54892">
        <ele>279</ele>
        <time>2021-12-14T11:34:40+01:00</time>
      </trkpt>
      <trkpt lat="44.2443" lon="4.54904">
        <ele>277</ele>
        <time>2021-12-14T11:34:45+01:00</time>
      </trkpt>
      <trkpt lat="44.24425" lon="4.5497">
        <ele>263</ele>
        <time>2021-12-14T11:34:50+01:00</time>
      </trkpt>
      <trkpt lat="44.24396" lon="4.55016">
        <ele>258</ele>
        <time>2021-12-14T11:34:55+01:00</time>
      </trkpt>
      <trkpt lat="44.24308" lon="4.55062">
        <ele>257</ele>
        <time>2021-12-14T11:35:00+01:00</time>
      </trkpt>
      <trkpt lat="44.24273" lon="4.55109">
        <ele>250</ele>
        <time>2021-12-14T11:35:05+01:00</time>
      </trkpt>
      <trkpt lat="44.24226" lon="4.55078">
        <ele>255</ele>
        <time>2021-12-14T11:35:10+01:00</time>
      </trkpt>
      <trkpt lat="44.24213" lon="4.55133">
        <ele>246</ele>
        <time>2021-12-14T11:35:15+01:00</time>
      </trkpt>
      <trkpt lat="44.24169" lon="4.55165">
        <ele>237</ele>
        <time>2021-12-14T11:35:20+01:00</time>
      </trkpt>
      <trkpt lat="44.24176" lon="4.552">
        <ele>233</ele>
        <time>2021-12-14T11:35:25+01:00</time>
      </trkpt>
      <trkpt lat="44.24139" lon="4.55223">
        <ele>226</ele>
        <time>2021-12-14T11:35:30+01:00</time>
      </trkpt>
      <trkpt lat="44.24106" lon="4.55202">
        <ele>226</ele>
        <time>2021-12-14T11:35:35+01:00</time>
      </trkpt>
      <trkpt lat="44.24088" lon="4.55229">
        <ele>220</ele>
        <time>2021-12-14T11:35:40+01:00</time>
      </trkpt>
      <trkpt lat="44.23924" lon="4.55254">
        <ele>212</ele>
        <time>2021-12-14T11:35:45+01:00</time>
      </trkpt>
      <trkpt lat="44.23888" lon="4.55283">
        <ele>216</ele>
        <time>2021-12-14T11:35:50+01:00</time>
      </trkpt>
      <trkpt lat="44.23917" lon="4.55373">
        <ele>204</ele>
        <time>2021-12-14T11:35:55+01:00</time>
      </trkpt>
      <trkpt lat="44.23881" lon="4.55339">
        <ele>213</ele>
        <time>2021-12-14T11:36:00+01:00</time>
      </trkpt>
      <trkpt lat="44.23873" lon="4.55303">
        <ele>218</ele>
        <time>2021-12-14T11:36:05+01:00</time>
      </trkpt>
      <trkpt lat="44.23821" lon="4.55321">
        <ele>228</ele>
        <time>2021-12-14T11:36:10+01:00</time>
      </trkpt>
      <trkpt lat="44.23771" lon="4.55277">
        <ele>238</ele>
        <time>2021-12-14T11:36:15+01:00</time>
      </trkpt>
      <trkpt lat="44.23624" lon="4.55303">
        <ele>266</ele>
        <time>2021-12-14T11:36:20+01:00</time>
      </trkpt>
      <trkpt lat="44.23603" lon="4.55347">
        <ele>267</ele>
        <time>2021-12-14T11:36:25+01:00</time>
      </trkpt>
      <trkpt lat="44.23596" lon="4.55406">
        <ele>261</ele>
        <time>2021-12-14T11:36:30+01:00</time>
      </trkpt>
      <trkpt lat="44.23552" lon="4.55356">
        <ele>276</ele>
        <time>2021-12-14T11:36:35+01:00</time>
      </trkpt>
      <trkpt lat="44.23482" lon="4.55353">
        <ele>284</ele>
        <time>2021-12-14T11:36:40+01:00</time>
      </trkpt>
      <trkpt lat="44.23417" lon="4.55324">
        <ele>296</ele>
        <time>2021-12-14T11:36:45+01:00</time>
      </trkpt>
      <trkpt lat="44.23351" lon="4.55356">
        <ele>302</ele>
        <time>2021-12-14T11:36:50+01:00</time>
      </trkpt>
      <trkpt lat="44.2326" lon="4.55403">
        <ele>310</ele>
        <time>2021-12-14T11:36:55+01:00</time>
      </trkpt>
      <trkpt lat="44.23213" lon="4.55524">
        <ele>308</ele>
        <time>2021-12-14T11:37:00+01:00</time>
      </trkpt>
      <trkpt lat="44.23187" lon="4.55416">
        <ele>317</ele>
        <time>2021-12-14T11:37:05+01:00</time>
      </trkpt>
      <trkpt lat="44.23129" lon="4.55342">
        <ele>324</ele>
        <time>2021-12-14T11:37:10+01:00</time>
      </trkpt>
      <trkpt lat="44.23097" lon="4.55284">
        <ele>326</ele>
        <time>2021-12-14T11:37:15+01:00</time>
      </trkpt>
      <trkpt lat="44.22993" lon="4.55261">
        <ele>321</ele>
        <time>2021-12-14T11:37:20+01:00</time>
      </trkpt>
      <trkpt lat="44.22877" lon="4.55284">
        <ele>310</ele>
        <time>2021-12-14T11:37:25+01:00</time>
      </trkpt>
      <trkpt lat="44.22846" lon="4.55377">
        <ele>310</ele>
        <time>2021-12-14T11:37:30+01:00</time>
      </trkpt>
      <trkpt lat="44.22809" lon="4.55455">
        <ele>319</ele>
        <time>2021-12-14T11:37:35+01:00</time>
      </trkpt>
      <trkpt lat="44.2281" lon="4.55533">
        <ele>332</ele>
        <time>2021-12-14T11:37:40+01:00</time>
      </trkpt>
      <trkpt lat="44.22702" lon="4.55545">
        <ele>342</ele>
        <time>2021-12-14T11:37:45+01:00</time>
      </trkpt>
      <trkpt lat="44.2263" lon="4.55539">
        <ele>341</ele>
        <time>2021-12-14T11:37:50+01:00</time>
      </trkpt>
      <trkpt lat="44.22542" lon="4.55509">
        <ele>337</ele>
        <time>2021-12-14T11:37:55+01:00</time>
      </trkpt>
      <trkpt lat="44.22387" lon="4.55525">
        <ele>325</ele>
        <time>2021-12-14T11:38:00+01:00</time>
      </trkpt>
      <trkpt lat="44.2231" lon="4.55588">
        <ele>313</ele>
        <time>2021-12-14T11:38:05+01:00</time>
      </trkpt>
      <trkpt lat="44.22257" lon="4.55603">
        <ele>302</ele>
        <time>2021-12-14T11:38:10+01:00</time>
      </trkpt>
      <trkpt lat="44.22249" lon="4.55683">
        <ele>297</ele>
        <time>2021-12-14T11:38:15+01:00</time>
      </trkpt>
      <trkpt lat="44.22273" lon="4.55762">
        <ele>293</ele>
        <time>2021-12-14T11:38:20+01:00</time>
      </trkpt>
      <trkpt lat="44.22332" lon="4.55835">
        <ele>289</ele>
        <time>2021-12-14T11:38:25+01:00</time>
      </trkpt>
      <trkpt lat="44.22295" lon="4.55843">
        <ele>287</ele>
        <time>2021-12-14T11:38:30+01:00</time>
      </trkpt>
      <trkpt lat="44.22279" lon="4.55925">
        <ele>283</ele>
        <time>2021-12-14T11:38:35+01:00</time>
      </trkpt>
      <trkpt lat="44.22304" lon="4.56008">
        <ele>277</ele>
        <time>2021-12-14T11:38:40+01:00</time>
      </trkpt>
      <trkpt lat="44.22327" lon="4.56112">
        <ele>267</ele>
        <time>2021-12-14T11:38:45+01:00</time>
      </trkpt>
      <trkpt lat="44.22296" lon="4.56224">
        <ele>261</ele>
        <time>2021-12-14T11:38:50+01:00</time>
      </trkpt>
      <trkpt lat="44.22215" lon="4.5635">
        <ele>249</ele>
        <time>2021-12-14T11:38:55+01:00</time>
      </trkpt>
      <trkpt lat="44.22152" lon="4.5645">
        <ele>232</ele>
        <time>2021-12-14T11:39:00+01:00</time>
      </trkpt>
      <trkpt lat="44.22071" lon="4.56517">
        <ele>222</ele>
        <time>2021-12-14T11:39:05+01:00</time>
      </trkpt>
      <trkpt lat="44.21999" lon="4.56501">
        <ele>213</ele>
        <time>2021-12-14T11:39:10+01:00</time>
      </trkpt>
      <trkpt lat="44.21941" lon="4.56501">
        <ele>207</ele>
        <time>2021-12-14T11:39:15+01:00</time>
      </trkpt>
      <trkpt lat="44.21891" lon="4.56551">
        <ele>200</ele>
        <time>2021-12-14T11:39:20+01:00</time>
      </trkpt>
      <trkpt lat="44.21644" lon="4.56476">
        <ele>192</ele>
        <time>2021-12-14T11:39:25+01:00</time>
      </trkpt>
      <trkpt lat="44.21719" lon="4.56565">
        <ele>189</ele>
        <time>2021-12-14T11:39:30+01:00</time>
      </trkpt>
      <trkpt lat="44.21761" lon="4.56698">
        <ele>189</ele>
        <time>2021-12-14T11:39:35+01:00</time>
      </trkpt>
      <trkpt lat="44.21776" lon="4.56891">
        <ele>184</ele>
        <time>2021-12-14T11:39:40+01:00</time>
      </trkpt>
      <trkpt lat="44.21729" lon="4.5705">
        <ele>187</ele>
        <time>2021-12-14T11:39:45+01:00</time>
      </trkpt>
      <trkpt lat="44.21709" lon="4.57212">
        <ele>186</ele>
        <time>2021-12-14T11:39:50+01:00</time>
      </trkpt>
      <trkpt lat="44.21637" lon="4.57303">
        <ele>192</ele>
        <time>2021-12-14T11:39:55+01:00</time>
      </trkpt>
      <trkpt lat="44.21597" lon="4.57383">
        <ele>194</ele>
        <time>2021-12-14T11:40:00+01:00</time>
      </trkpt>
      <trkpt lat="44.21559" lon="4.57613">
        <ele>191</ele>
        <time>2021-12-14T11:40:05+01:00</time>
      </trkpt>
      <trkpt lat="44.21523" lon="4.57732">
        <ele>189</ele>
        <time>2021-12-14T11:40:10+01:00</time>
      </trkpt>
      <trkpt lat="44.21498" lon="4.57757">
        <ele>193</ele>
        <time>2021-12-14T11:40:15+01:00</time>
      </trkpt>
      <trkpt lat="44.21475" lon="4.57891">
        <ele>191</ele>
        <time>2021-12-14T11:40:20+01:00</time>
      </trkpt>
      <trkpt lat="44.21442" lon="4.58005">
        <ele>196</ele>
        <time>2021-12-14T11:40:25+01:00</time>
      </trkpt>
      <trkpt lat="44.21456" lon="4.58092">
        <ele>192</ele>
        <time>2021-12-14T11:40:30+01:00</time>
      </trkpt>
      <trkpt lat="44.21405" lon="4.58193">
        <ele>192</ele>
        <time>2021-12-14T11:40:35+01:00</time>
      </trkpt>
      <trkpt lat="44.21314" lon="4.5825">
        <ele>195</ele>
        <time>2021-12-14T11:40:40+01:00</time>
      </trkpt>
      <trkpt lat="44.21286" lon="4.58219">
        <ele>196</ele>
        <time>2021-12-14T11:40:45+01:00</time>
      </trkpt>
      <trkpt lat="44.2124" lon="4.58231">
        <ele>196</ele>
        <time>2021-12-14T11:40:50+01:00</time>
      </trkpt>
      <trkpt lat="44.21199" lon="4.58308">
        <ele>197</ele>
        <time>2021-12-14T11:40:55+01:00</time>
      </trkpt>
      <trkpt lat="44.21156" lon="4.58405">
        <ele>196</ele>
        <time>2021-12-14T11:41:00+01:00</time>
      </trkpt>
      <trkpt lat="44.21152" lon="4.58492">
        <ele>198</ele>
        <time>2021-12-14T11:41:05+01:00</time>
      </trkpt>
      <trkpt lat="44.2117" lon="4.58552">
        <ele>201</ele>
        <time>2021-12-14T11:41:10+01:00</time>
      </trkpt>
      <trkpt lat="44.21172" lon="4.58692">
        <ele>209</ele>
        <time>2021-12-14T11:41:15+01:00</time>
      </trkpt>
      <trkpt lat="44.21179" lon="4.58799">
        <ele>215</ele>
        <time>2021-12-14T11:41:20+01:00</time>
      </trkpt>
      <trkpt lat="44.21141" lon="4.58888">
        <ele>215</ele>
        <time>2021-12-14T11:41:25+01:00</time>
      </trkpt>
      <trkpt lat="44.21115" lon="4.58917">
        <ele>216</ele>
        <time>2021-12-14T11:41:30+01:00</time>
      </trkpt>
      <trkpt lat="44.21118" lon="4.59139">
        <ele>210</ele>
        <time>2021-12-14T11:41:35+01:00</time>
      </trkpt>
      <trkpt lat="44.21058" lon="4.59213">
        <ele>208</ele>
        <time>2021-12-14T11:41:40+01:00</time>
      </trkpt>
      <trkpt lat="44.20933" lon="4.59297">
        <ele>204</ele>
        <time>2021-12-14T11:41:45+01:00</time>
      </trkpt>
      <trkpt lat="44.20844" lon="4.59332">
        <ele>198</ele>
        <time>2021-12-14T11:41:50+01:00</time>
      </trkpt>
      <trkpt lat="44.2078" lon="4.59365">
        <ele>197</ele>
        <time>2021-12-14T11:41:55+01:00</time>
      </trkpt>
      <trkpt lat="44.20594" lon="4.594">
        <ele>198</ele>
        <time>2021-12-14T11:42:00+01:00</time>
      </trkpt>
      <trkpt lat="44.20558" lon="4.5938">
        <ele>196</ele>
        <time>2021-12-14T11:42:05+01:00</time>
      </trkpt>
      <trkpt lat="44.20494" lon="4.59501">
        <ele>189</ele>
        <time>2021-12-14T11:42:10+01:00</time>
      </trkpt>
      <trkpt lat="44.20463" lon="4.59489">
        <ele>188</ele>
        <time>2021-12-14T11:42:15+01:00</time>
      </trkpt>
      <trkpt lat="44.20419" lon="4.5951">
        <ele>187</ele>
        <time>2021-12-14T11:42:20+01:00</time>
      </trkpt>
      <trkpt lat="44.2025" lon="4.5938">
        <ele>191</ele>
        <time>2021-12-14T11:42:25+01:00</time>
      </trkpt>
      <trkpt lat="44.20211" lon="4.59474">
        <ele>195</ele>
        <time>2021-12-14T11:42:30+01:00</time>
      </trkpt>
      <trkpt lat="44.20183" lon="4.59542">
        <ele>197</ele>
        <time>2021-12-14T11:42:35+01:00</time>
      </trkpt>
      <trkpt lat="44.20117" lon="4.59593">
        <ele>197</ele>
        <time>2021-12-14T11:42:40+01:00</time>
      </trkpt>
      <trkpt lat="44.19972" lon="4.59551">
        <ele>193</ele>
        <time>2021-12-14T11:42:45+01:00</time>
      </trkpt>
      <trkpt lat="44.19811" lon="4.59512">
        <ele>197</ele>
        <time>2021-12-14T11:42:50+01:00</time>
      </trkpt>
      <trkpt lat="44.19764" lon="4.59475">
        <ele>198</ele>
        <time>2021-12-14T11:42:55+01:00</time>
      </trkpt>
      <trkpt lat="44.19758" lon="4.59633">
        <ele>206</ele>
        <time>2021-12-14T11:43:00+01:00</time>
      </trkpt>
      <trkpt lat="44.19707" lon="4.59893">
        <ele>215</ele>
        <time>2021-12-14T11:43:05+01:00</time>
      </trkpt>
      <trkpt lat="44.19661" lon="4.60008">
        <ele>216</ele>
        <time>2021-12-14T11:43:10+01:00</time>
      </trkpt>
      <trkpt lat="44.19659" lon="4.60072">
        <ele>215</ele>
        <time>2021-12-14T11:43:15+01:00</time>
      </trkpt>
      <trkpt lat="44.19607" lon="4.60149">
        <ele>205</ele>
        <time>2021-12-14T11:43:20+01:00</time>
      </trkpt>
      <trkpt lat="44.19337" lon="4.60187">
        <ele>197</ele>
        <time>2021-12-14T11:43:25+01:00</time>
      </trkpt>
      <trkpt lat="44.19294" lon="4.603">
        <ele>194</ele>
        <time>2021-12-14T11:43:30+01:00</time>
      </trkpt>
      <trkpt lat="44.19284" lon="4.60386">
        <ele>188</ele>
        <time>2021-12-14T11:43:35+01:00</time>
      </trkpt>
      <trkpt lat="44.19238" lon="4.60403">
        <ele>184</ele>
        <time>2021-12-14T11:43:40+01:00</time>
      </trkpt>
      <trkpt lat="44.19179" lon="4.60514">
        <ele>169</ele>
        <time>2021-12-14T11:43:45+01:00</time>
      </trkpt>
      <trkpt lat="44.19157" lon="4.60563">
        <ele>165</ele>
        <time>2021-12-14T11:43:50+01:00</time>
      </trkpt>
      <trkpt lat="44.19106" lon="4.60612">
        <ele>159</ele>
        <time>2021-12-14T11:43:55+01:00</time>
      </trkpt>
      <trkpt lat="44.19052" lon="4.60608">
        <ele>158</ele>
        <time>2021-12-14T11:44:00+01:00</time>
      </trkpt>
      <trkpt lat="44.19026" lon="4.60648">
        <ele>154</ele>
        <time>2021-12-14T11:44:05+01:00</time>
      </trkpt>
      <trkpt lat="44.19017" lon="4.6071">
        <ele>148</ele>
        <time>2021-12-14T11:44:10+01:00</time>
      </trkpt>
      <trkpt lat="44.18952" lon="4.6075">
        <ele>140</ele>
        <time>2021-12-14T11:44:15+01:00</time>
      </trkpt>
      <trkpt lat="44.18853" lon="4.60731">
        <ele>135</ele>
        <time>2021-12-14T11:44:20+01:00</time>
      </trkpt>
      <trkpt lat="44.18777" lon="4.60736">
        <ele>128</ele>
        <time>2021-12-14T11:44:25+01:00</time>
      </trkpt>
      <trkpt lat="44.18675" lon="4.60701">
        <ele>117</ele>
        <time>2021-12-14T11:44:30+01:00</time>
      </trkpt>
      <trkpt lat="44.18642" lon="4.60742">
        <ele>117</ele>
        <time>2021-12-14T11:44:35+01:00</time>
      </trkpt>
      <trkpt lat="44.18575" lon="4.60695">
        <ele>106</ele>
        <time>2021-12-14T11:44:40+01:00</time>
      </trkpt>
      <trkpt lat="44.18481" lon="4.60708">
        <ele>92</ele>
        <time>2021-12-14T11:44:45+01:00</time>
      </trkpt>
      <trkpt lat="44.18389" lon="4.6074">
        <ele>83</ele>
        <time>2021-12-14T11:44:50+01:00</time>
      </trkpt>
      <trkpt lat="44.18201" lon="4.6081">
        <ele>73</ele>
        <time>2021-12-14T11:44:55+01:00</time>
      </trkpt>
      <trkpt lat="44.18362" lon="4.6123">
        <ele>75</ele>
        <time>2021-12-14T11:45:00+01:00</time>
      </trkpt>
      <trkpt lat="44.18168" lon="4.6128">
        <ele>68</ele>
        <time>2021-12-14T11:45:05+01:00</time>
      </trkpt>
      <trkpt lat="44.18061" lon="4.61256">
        <ele>67</ele>
        <time>2021-12-14T11:45:10+01:00</time>
      </trkpt>
      <trkpt lat="44.18007" lon="4.61427">
        <ele>64</ele>
        <time>2021-12-14T11:45:15+01:00</time>
      </trkpt>
      <trkpt lat="44.17833" lon="4.61401">
        <ele>57</ele>
        <time>2021-12-14T11:45:20+01:00</time>
      </trkpt>
      <trkpt lat="44.17818" lon="4.61437">
        <ele>56</ele>
        <time>2021-12-14T11:45:25+01:00</time>
      </trkpt>
      <trkpt lat="44.17628" lon="4.61501">
        <ele>51</ele>
        <time>2021-12-14T11:45:30+01:00</time>
      </trkpt>
      <trkpt lat="44.17448" lon="4.616">
        <ele>50</ele>
        <time>2021-12-14T11:45:35+01:00</time>
      </trkpt>
      <trkpt lat="44.17368" lon="4.61646">
        <ele>48</ele>
        <time>2021-12-14T11:45:40+01:00</time>
      </trkpt>
      <trkpt lat="44.17258" lon="4.61809">
        <ele>49</ele>
        <time>2021-12-14T11:45:45+01:00</time>
      </trkpt>
      <trkpt lat="44.17169" lon="4.61832">
        <ele>45</ele>
        <time>2021-12-14T11:45:50+01:00</time>
      </trkpt>
      <trkpt lat="44.17151" lon="4.6199">
        <ele>48</ele>
        <time>2021-12-14T11:45:55+01:00</time>
      </trkpt>
      <trkpt lat="44.17055" lon="4.62009">
        <ele>44</ele>
        <time>2021-12-14T11:46:00+01:00</time>
      </trkpt>
      <trkpt lat="44.16946" lon="4.61968">
        <ele>47</ele>
        <time>2021-12-14T11:46:05+01:00</time>
      </trkpt>
      <trkpt lat="44.1684" lon="4.61928">
        <ele>48</ele>
        <time>2021-12-14T11:46:10+01:00</time>
      </trkpt>
      <trkpt lat="44.1655" lon="4.61936">
        <ele>55</ele>
        <time>2021-12-14T11:46:15+01:00</time>
      </trkpt>
      <trkpt lat="44.16429" lon="4.61986">
        <ele>62</ele>
        <time>2021-12-14T11:46:20+01:00</time>
      </trkpt>
      <trkpt lat="44.16223" lon="4.6196">
        <ele>66</ele>
        <time>2021-12-14T11:46:25+01:00</time>
      </trkpt>
      <trkpt lat="44.16194" lon="4.62154">
        <ele>60</ele>
        <time>2021-12-14T11:46:30+01:00</time>
      </trkpt>
      <trkpt lat="44.16156" lon="4.62355">
        <ele>56</ele>
        <time>2021-12-14T11:46:35+01:00</time>
      </trkpt>
      <trkpt lat="44.16079" lon="4.62666">
        <ele>51</ele>
        <time>2021-12-14T11:46:40+01:00</time>
      </trkpt>
      <trkpt lat="44.161" lon="4.62751">
        <ele>50</ele>
        <time>2021-12-14T11:46:45+01:00</time>
      </trkpt>
      <trkpt lat="44.16064" lon="4.62764">
        <ele>50</ele>
        <time>2021-12-14T11:46:50+01:00</time>
      </trkpt>
      <trkpt lat="44.16015" lon="4.62965">
        <ele>51</ele>
        <time>2021-12-14T11:46:55+01:00</time>
      </trkpt>
      <trkpt lat="44.15894" lon="4.63193">
        <ele>55</ele>
        <time>2021-12-14T11:47:00+01:00</time>
      </trkpt>
      <trkpt lat="44.15841" lon="4.63248">
        <ele>55</ele>
        <time>2021-12-14T11:47:05+01:00</time>
      </trkpt>
      <trkpt lat="44.15763" lon="4.63231">
        <ele>55</ele>
        <time>2021-12-14T11:47:10+01:00</time>
      </trkpt>
      <trkpt lat="44.15736" lon="4.63251">
        <ele>57</ele>
        <time>2021-12-14T11:47:15+01:00</time>
      </trkpt>
      <trkpt lat="44.15712" lon="4.63369">
        <ele>56</ele>
        <time>2021-12-14T11:47:20+01:00</time>
      </trkpt>
      <trkpt lat="44.15598" lon="4.63418">
        <ele>54</ele>
        <time>2021-12-14T11:47:25+01:00</time>
      </trkpt>
      <trkpt lat="44.15559" lon="4.63481">
        <ele>53</ele>
        <time>2021-12-14T11:47:30+01:00</time>
      </trkpt>
      <trkpt lat="44.15556" lon="4.63579">
        <ele>49</ele>
        <time>2021-12-14T11:47:35+01:00</time>
      </trkpt>
      <trkpt lat="44.15579" lon="4.63719">
        <ele>48</ele>
        <time>2021-12-14T11:47:40+01:00</time>
      </trkpt>
      <trkpt lat="44.15465" lon="4.64142">
        <ele>51</ele>
        <time>2021-12-14T11:47:45+01:00</time>
      </trkpt>
      <trkpt lat="44.15321" lon="4.6444">
        <ele>49</ele>
        <time>2021-12-14T11:47:50+01:00</time>
      </trkpt>
      <trkpt lat="44.15131" lon="4.64609">
        <ele>49</ele>
        <time>2021-12-14T11:47:55+01:00</time>
      </trkpt>
      <trkpt lat="44.14971" lon="4.648">
        <ele>48</ele>
        <time>2021-12-14T11:48:00+01:00</time>
      </trkpt>
      <trkpt lat="44.14796" lon="4.64987">
        <ele>51</ele>
        <time>2021-12-14T11:48:05+01:00</time>
      </trkpt>
      <trkpt lat="44.14445" lon="4.65333">
        <ele>57</ele>
        <time>2021-12-14T11:48:10+01:00</time>
      </trkpt>
      <trkpt lat="44.14312" lon="4.65369">
        <ele>60</ele>
        <time>2021-12-14T11:48:15+01:00</time>
      </trkpt>
      <trkpt lat="44.14172" lon="4.65472">
        <ele>63</ele>
        <time>2021-12-14T11:48:20+01:00</time>
      </trkpt>
      <trkpt lat="44.14006" lon="4.65676">
        <ele>63</ele>
        <time>2021-12-14T11:48:25+01:00</time>
      </trkpt>
      <trkpt lat="44.13879" lon="4.6579">
        <ele>61</ele>
        <time>2021-12-14T11:48:30+01:00</time>
      </trkpt>
      <trkpt lat="44.1375" lon="4.65828">
        <ele>63</ele>
        <time>2021-12-14T11:48:35+01:00</time>
      </trkpt>
      <trkpt lat="44.13648" lon="4.65895">
        <ele>60</ele>
        <time>2021-12-14T11:48:40+01:00</time>
      </trkpt>
      <trkpt lat="44.13479" lon="4.65963">
        <ele>65</ele>
        <time>2021-12-14T11:48:45+01:00</time>
      </trkpt>
      <trkpt lat="44.13391" lon="4.65972">
        <ele>70</ele>
        <time>2021-12-14T11:48:50+01:00</time>
      </trkpt>
      <trkpt lat="44.13293" lon="4.66062">
        <ele>68</ele>
        <time>2021-12-14T11:48:55+01:00</time>
      </trkpt>
      <trkpt lat="44.13231" lon="4.66082">
        <ele>69</ele>
        <time>2021-12-14T11:49:00+01:00</time>
      </trkpt>
      <trkpt lat="44.1311" lon="4.6619">
        <ele>76</ele>
        <time>2021-12-14T11:49:05+01:00</time>
      </trkpt>
      <trkpt lat="44.13011" lon="4.66163">
        <ele>81</ele>
        <time>2021-12-14T11:49:10+01:00</time>
      </trkpt>
      <trkpt lat="44.12943" lon="4.66167">
        <ele>81</ele>
        <time>2021-12-14T11:49:15+01:00</time>
      </trkpt>
      <trkpt lat="44.12875" lon="4.66204">
        <ele>77</ele>
        <time>2021-12-14T11:49:20+01:00</time>
      </trkpt>
      <trkpt lat="44.12865" lon="4.66223">
        <ele>75</ele>
        <time>2021-12-14T11:49:25+01:00</time>
      </trkpt>
      <trkpt lat="44.12875" lon="4.66312">
        <ele>69</ele>
        <time>2021-12-14T11:49:30+01:00</time>
      </trkpt>
      <trkpt lat="44.12903" lon="4.66394">
        <ele>62</ele>
        <time>2021-12-14T11:49:35+01:00</time>
      </trkpt>
      <trkpt lat="44.12952" lon="4.66379">
        <ele>66</ele>
        <time>2021-12-14T11:49:40+01:00</time>
      </trkpt>
    </trkseg>
  </trk>
</gpx>